Time;durP1;ratioP1;P1;durP2;ratioP2;P2;SDS_P1;SDS_P2;PMS_P1;PMS_P2;Temp;Humidity;BMP_temperature;BMP_pressure;BME280_temperature;BME280_humidity;BME280_pressure;Samples;Min_cycle;Max_cycle;Signal;HPM_P1;HPM_P2
2022/05/13 00:01:07;;;;;;;7.68;2.78;;;;;;;20.39;41.97;99136.22;4993900;28;20407;-49
2022/05/13 00:03:33;;;;;;;12.70;3.55;;;;;;;20.38;41.85;99131.94;5011688;28;20034;-49
2022/05/13 00:06:00;;;;;;;6.15;2.70;;;;;;;20.40;42.04;99135.94;5011487;28;20018;-49
2022/05/13 00:08:26;;;;;;;8.40;2.28;;;;;;;20.48;41.75;99126.69;5011552;28;20022;-49
2022/05/13 00:10:52;;;;;;;8.80;2.58;;;;;;;20.48;41.69;99127.50;5011528;28;20100;-49
2022/05/13 00:13:18;;;;;;;14.30;3.55;;;;;;;20.50;41.90;99124.56;5011521;28;20080;-48
2022/05/13 00:15:44;;;;;;;7.40;2.58;;;;;;;20.60;41.82;99129.22;5011448;28;20026;-50
2022/05/13 00:18:11;;;;;;;13.00;3.47;;;;;;;20.66;41.48;99128.19;5012407;28;20036;-49
2022/05/13 00:20:37;;;;;;;9.25;3.03;;;;;;;20.72;41.38;99130.63;4997386;28;20511;-49
2022/05/13 00:23:03;;;;;;;11.48;2.90;;;;;;;20.82;41.08;99127.25;4997338;28;20459;-49
2022/05/13 00:25:31;;;;;;;13.45;3.78;;;;;;;20.79;41.26;99121.63;5014842;28;20026;-49
2022/05/13 00:28:00;;;;;;;11.60;3.85;;;;;;;20.81;41.06;99122.97;5014950;28;20106;-49
2022/05/13 00:30:27;;;;;;;10.15;3.30;;;;;;;20.86;40.97;99120.31;5014915;28;20193;-49
2022/05/13 00:32:53;;;;;;;6.93;2.70;;;;;;;20.83;40.74;99126.19;5015146;28;20034;-48
2022/05/13 00:35:21;;;;;;;9.10;2.40;;;;;;;20.56;41.16;99118.22;4997108;28;20026;-49
2022/05/13 00:37:47;;;;;;;10.02;3.03;;;;;;;20.33;41.87;99120.19;5014737;28;20480;-49
2022/05/13 00:40:15;;;;;;;11.23;3.67;;;;;;;20.29;42.33;99113.75;5014599;28;20152;-49
2022/05/13 00:42:41;;;;;;;8.65;3.33;;;;;;;20.27;42.14;99115.06;5014655;28;20018;-49
2022/05/13 00:45:08;;;;;;;9.00;2.40;;;;;;;20.15;42.18;99113.34;5014553;28;20028;-49
2022/05/13 00:47:34;;;;;;;11.23;2.78;;;;;;;20.12;42.12;99116.53;5014593;28;20022;-48
2022/05/13 00:50:03;;;;;;;14.80;3.15;;;;;;;20.02;42.52;99113.78;4996851;28;20040;-49
2022/05/13 00:52:29;;;;;;;9.32;2.92;;;;;;;20.00;42.70;99112.41;5014457;28;20479;-49
2022/05/13 00:54:55;;;;;;;15.32;4.78;;;;;;;19.92;42.57;99111.81;5014173;28;20111;-49
2022/05/13 00:57:22;;;;;;;10.27;3.30;;;;;;;19.96;42.82;99104.13;5014405;28;20033;-49
2022/05/13 00:59:51;;;;;;;12.85;2.67;;;;;;;19.98;42.25;99107.34;5014395;28;20022;-50
2022/05/13 01:02:17;;;;;;;9.00;3.05;;;;;;;19.87;42.57;99102.97;5014315;28;20049;-49
2022/05/13 01:04:43;;;;;;;11.80;3.22;;;;;;;19.90;42.98;99100.59;5014203;28;20069;-49
2022/05/13 01:07:15;;;;;;;9.85;3.47;;;;;;;19.94;43.12;99100.88;5014165;28;20044;-49
2022/05/13 01:09:46;;;;;;;12.18;3.83;;;;;;;19.98;42.85;99096.69;4996570;28;20061;-49
2022/05/13 01:12:17;;;;;;;10.93;3.45;;;;;;;20.02;43.50;99100.44;5014190;28;20026;-49
2022/05/13 01:14:53;;;;;;;9.00;2.47;;;;;;;20.04;42.94;99094.84;5014133;28;20526;-49
2022/05/13 01:20:12;;;;;;;16.38;4.03;;;;;;;20.05;42.75;99101.81;5014285;28;20092;-49
2022/05/13 01:22:42;;;;;;;13.02;3.00;;;;;;;20.08;42.42;99099.44;4996255;28;20053;-50
2022/05/13 01:25:10;;;;;;;8.38;2.17;;;;;;;20.01;42.27;99103.38;4996151;28;20112;-50
2022/05/13 01:27:36;;;;;;;7.68;2.08;;;;;;;19.86;42.17;99104.00;5013817;28;20104;-49
2022/05/13 01:30:04;;;;;;;12.10;3.42;;;;;;;19.74;42.64;99099.63;4995142;28;20112;-49
2022/05/13 01:32:30;;;;;;;10.50;2.90;;;;;;;19.69;42.42;99110.19;5013760;28;20492;-49
2022/05/13 01:34:56;;;;;;;10.77;2.78;;;;;;;19.54;42.87;99110.03;4996032;28;20033;-49
2022/05/13 01:37:22;;;;;;;11.02;4.95;;;;;;;19.51;44.71;99116.63;5013620;28;20026;-48
2022/05/13 01:39:47;;;;;;;9.13;4.05;;;;;;;19.51;44.07;99121.16;5013553;28;20456;-49
2022/05/13 01:42:13;;;;;;;14.60;3.40;;;;;;;19.56;43.61;99110.59;4995854;28;20025;-49
2022/05/13 01:44:39;;;;;;;9.70;3.17;;;;;;;19.60;43.17;99106.38;5013639;28;20073;-50
2022/05/13 01:47:05;;;;;;;8.75;2.38;;;;;;;19.66;43.14;99104.53;4995818;28;20022;-49
2022/05/13 01:49:30;;;;;;;13.82;3.53;;;;;;;19.66;42.86;99110.69;5013455;28;20037;-49
2022/05/13 01:51:56;;;;;;;23.50;10.90;;;;;;;19.56;42.97;99099.94;4995677;28;20587;-50
2022/05/13 01:54:22;;;;;;;35.03;20.10;;;;;;;19.51;42.81;99110.50;5013058;28;20046;-49
2022/05/13 01:56:47;;;;;;;20.48;9.05;;;;;;;19.46;42.80;99105.16;5013168;28;20022;-49
2022/05/13 01:59:13;;;;;;;36.53;16.00;;;;;;;19.33;43.29;99106.31;4995611;28;20018;-49
2022/05/13 02:01:39;;;;;;;16.75;4.18;;;;;;;19.30;43.33;99096.16;5013408;28;20033;-49
2022/05/13 02:04:04;;;;;;;10.68;3.97;;;;;;;19.23;43.78;99104.31;5013065;28;20476;-50
2022/05/13 02:06:30;;;;;;;12.88;3.85;;;;;;;19.22;43.93;99105.38;5013053;28;20022;-49
2022/05/13 02:08:57;;;;;;;12.65;4.75;;;;;;;19.35;44.04;99099.66;4995441;28;20128;-50
2022/05/13 02:11:26;;;;;;;16.23;3.25;;;;;;;19.43;43.75;99105.63;4995364;28;20029;-49
2022/05/13 02:13:52;;;;;;;12.55;4.72;;;;;;;19.50;43.51;99114.25;5013014;28;20109;-49
2022/05/13 02:16:19;;;;;;;14.43;3.22;;;;;;;19.56;43.36;99102.59;4995225;28;20486;-49
2022/05/13 02:18:45;;;;;;;12.57;3.25;;;;;;;19.64;42.94;99099.50;5012919;28;20105;-49
2022/05/13 02:21:13;;;;;;;12.18;3.50;;;;;;;19.68;43.46;99097.13;4995141;28;20109;-49
2022/05/13 02:23:39;;;;;;;12.85;2.42;;;;;;;19.65;42.47;99085.13;4995196;28;20076;-49
2022/05/13 02:26:08;;;;;;;6.65;2.33;;;;;;;19.52;42.21;99094.31;5012706;28;20110;-49
2022/05/13 02:28:35;;;;;;;8.02;2.45;;;;;;;19.34;43.27;99086.63;5012774;28;20137;-49
2022/05/13 02:31:00;;;;;;;9.00;2.58;;;;;;;19.27;43.05;99092.13;5012710;28;20033;-49
2022/05/13 02:33:28;;;;;;;10.85;3.00;;;;;;;19.19;43.33;99089.88;5012721;28;20026;-49
2022/05/13 02:35:55;;;;;;;14.40;3.00;;;;;;;19.12;43.43;99090.06;4994926;28;20045;-49
2022/05/13 02:38:21;;;;;;;12.27;3.03;;;;;;;19.11;43.32;99098.31;5012613;28;20101;-50
2022/05/13 02:43:32;;;;;;;;;;;;;;;19.23;43.10;99088.34;5013303;28;20458;-50
2022/05/13 02:45:58;;;;;;;11.65;3.50;;;;;;;19.15;43.58;99086.13;5011135;28;19914;-49
2022/05/13 02:48:24;;;;;;;7.88;1.85;;;;;;;19.14;43.35;99080.00;5012516;28;20101;-49
2022/05/13 02:50:50;;;;;;;9.02;2.30;;;;;;;19.13;43.09;99081.03;5012387;28;20018;-49
2022/05/13 02:53:16;;;;;;;7.65;3.05;;;;;;;19.11;43.27;99082.34;5012087;28;20030;-49
2022/05/13 02:55:42;;;;;;;6.50;2.53;;;;;;;19.09;42.97;99079.91;4994717;28;20064;-49
2022/05/13 02:58:08;;;;;;;12.05;4.30;;;;;;;19.11;43.36;99079.69;4994580;28;20072;-50
2022/05/13 03:00:34;;;;;;;11.43;2.45;;;;;;;19.17;43.72;99068.03;5012225;28;20467;-49
2022/05/13 03:03:00;;;;;;;10.48;2.72;;;;;;;19.14;43.24;99064.03;4994583;28;20319;-49
2022/05/13 03:05:26;;;;;;;13.20;3.28;;;;;;;19.13;43.30;99069.59;5012159;28;20454;-49
2022/05/13 03:07:52;;;;;;;15.50;3.85;;;;;;;19.18;43.09;99066.22;4994470;28;20022;-49
2022/05/13 03:10:19;;;;;;;13.95;3.58;;;;;;;19.16;43.10;99074.44;5012094;28;20034;-49
2022/05/13 03:12:45;;;;;;;9.60;3.50;;;;;;;19.15;42.80;99075.47;5012127;28;20026;-50
2022/05/13 03:15:12;;;;;;;11.73;3.10;;;;;;;19.14;42.86;99081.84;5012095;28;20029;-49
2022/05/13 03:17:42;;;;;;;8.35;1.80;;;;;;;18.99;42.66;99074.47;4994343;28;20076;-49
2022/05/13 03:20:11;;;;;;;9.65;2.60;;;;;;;18.81;43.17;99066.78;5012015;28;20033;-49
2022/05/13 03:22:38;;;;;;;9.90;4.10;;;;;;;18.69;43.17;99074.81;5012003;28;20041;-50
2022/05/13 03:25:04;;;;;;;10.93;2.53;;;;;;;18.70;43.46;99077.22;5011861;28;20022;-49
2022/05/13 03:27:31;;;;;;;8.85;2.38;;;;;;;18.73;43.34;99075.94;4994325;28;20168;-49
2022/05/13 03:29:57;;;;;;;37.25;5.00;;;;;;;18.74;43.21;99075.69;5011897;28;20109;-49
2022/05/13 03:32:23;;;;;;;9.65;2.45;;;;;;;18.86;43.14;99075.63;5011774;28;20018;-50
2022/05/13 03:34:49;;;;;;;6.80;2.83;;;;;;;18.88;42.75;99070.88;5011914;28;20026;-50
2022/05/13 03:37:14;;;;;;;8.63;3.47;;;;;;;18.82;42.62;99071.84;4994160;28;20052;-49
2022/05/13 03:39:41;;;;;;;9.95;2.83;;;;;;;18.64;42.77;99072.09;5012056;28;20030;-50
2022/05/13 03:42:09;;;;;;;7.75;2.97;;;;;;;18.51;43.40;99067.91;5011842;28;20025;-49
2022/05/13 03:44:36;;;;;;;8.73;1.92;;;;;;;18.52;43.71;99064.19;4994099;28;20065;-50
2022/05/13 03:47:03;;;;;;;13.57;3.80;;;;;;;18.46;43.91;99065.97;5012049;28;20025;-49
2022/05/13 03:49:29;;;;;;;7.72;2.97;;;;;;;18.36;44.00;99061.31;5011738;28;20030;-50
2022/05/13 03:51:55;;;;;;;13.00;3.25;;;;;;;18.33;44.14;99071.59;5011728;28;20026;-49
2022/05/13 03:54:20;;;;;;;8.70;1.88;;;;;;;18.29;44.01;99073.13;4982509;28;20054;-49
2022/05/13 03:56:46;;;;;;;17.35;4.47;;;;;;;18.27;45.18;99075.22;4976490;28;20038;-49
2022/05/13 03:59:12;;;;;;;6.97;2.53;;;;;;;18.28;44.33;99084.81;4976491;28;20522;-49
2022/05/13 04:01:38;;;;;;;10.32;2.55;;;;;;;18.29;44.24;99094.38;4975083;28;20083;-49
2022/05/13 04:04:03;;;;;;;10.20;2.70;;;;;;;18.25;45.12;99086.13;4976274;28;20039;-50
2022/05/13 04:09:14;;;;;;;14.60;2.75;;;;;;;18.29;44.66;99097.88;4976361;28;20578;-49
2022/05/13 04:11:41;;;;;;;24.05;3.70;;;;;;;18.23;45.28;99112.13;4976240;28;20149;-49
2022/05/13 04:16:55;;;;;;;9.82;3.22;;;;;;;17.81;45.92;99098.28;4976496;28;20042;-49
2022/05/13 04:19:21;;;;;;;10.43;3.05;;;;;;;17.69;46.26;99103.66;4976096;28;20405;-49
2022/05/13 04:21:47;;;;;;;16.92;4.03;;;;;;;17.70;46.51;99108.72;4976065;28;20042;-48
2022/05/13 04:24:19;;;;;;;9.63;2.75;;;;;;;17.76;46.67;99120.25;4976022;28;20026;-50
2022/05/13 04:26:45;;;;;;;16.10;3.42;;;;;;;17.75;46.78;99116.81;4974739;28;20098;-49
2022/05/13 04:29:11;;;;;;;11.50;3.28;;;;;;;17.75;46.59;99116.81;4974710;28;20444;-49
2022/05/13 04:31:40;;;;;;;15.65;3.25;;;;;;;17.82;46.73;99115.84;4974515;28;20027;-48
2022/05/13 04:34:08;;;;;;;13.50;2.90;;;;;;;17.83;46.71;99115.66;4975823;28;20029;-49
2022/05/13 04:36:34;;;;;;;14.13;3.42;;;;;;;17.83;46.89;99122.75;4975784;28;20030;-49
2022/05/13 04:39:00;;;;;;;22.40;3.10;;;;;;;17.87;46.93;99124.75;4975791;28;20488;-50
2022/05/13 04:44:12;;;;;;;;;;;;;;;19.20;44.92;99112.81;4976083;28;20577;-50
2022/05/13 04:46:38;;;;;;;7.47;3.13;;;;;;;20.00;43.46;99107.91;4975605;28;19918;-49
2022/05/13 04:49:05;;;;;;;11.23;2.90;;;;;;;20.61;42.14;99115.63;4974309;28;20033;-49
2022/05/13 04:51:31;;;;;;;13.75;3.20;;;;;;;21.11;40.85;99106.34;4975497;28;20019;-49
2022/05/13 04:53:58;;;;;;;8.93;2.78;;;;;;;20.90;40.82;99118.75;4990806;28;20041;-49
2022/05/13 04:56:26;;;;;;;7.50;2.83;;;;;;;20.41;41.66;99112.78;5014628;28;20515;-50
2022/05/13 04:58:52;;;;;;;9.10;2.75;;;;;;;20.55;41.77;99108.63;5014406;28;20037;-50
2022/05/13 05:01:22;;;;;;;10.93;2.95;;;;;;;20.51;41.44;99121.66;4996723;28;20026;-50
2022/05/13 05:03:48;;;;;;;16.38;3.00;;;;;;;20.58;41.68;99117.97;5014218;28;20029;-50
2022/05/13 05:06:15;;;;;;;12.02;2.88;;;;;;;20.71;41.44;99128.25;5014169;28;20488;-49
2022/05/13 05:08:41;;;;;;;21.13;4.55;;;;;;;21.04;41.33;99127.09;5014233;28;20443;-49
2022/05/13 05:11:08;;;;;;;47.33;5.88;;;;;;;21.65;40.30;99136.50;5014153;28;20034;-49
2022/05/13 05:13:38;;;;;;;22.73;3.78;;;;;;;22.17;39.61;99132.09;5014121;28;20105;-49
2022/05/13 05:16:06;;;;;;;22.42;3.90;;;;;;;23.01;38.42;99135.31;5014106;28;20419;-49
2022/05/13 05:18:33;;;;;;;31.05;5.22;;;;;;;23.96;36.00;99136.31;5014020;28;20024;-49
2022/05/13 05:20:59;;;;;;;34.58;4.57;;;;;;;24.44;34.86;99123.91;5013985;28;20105;-50
2022/05/13 05:23:29;;;;;;;46.00;6.90;;;;;;;24.76;34.48;99130.63;4996311;28;20029;-50
2022/05/13 05:25:55;;;;;;;23.02;3.97;;;;;;;25.01;33.90;99131.47;5013843;28;20030;-50
2022/05/13 05:28:22;;;;;;;36.60;4.97;;;;;;;25.08;33.19;99140.00;5013841;28;20028;-48
2022/05/13 05:30:48;;;;;;;54.90;6.40;;;;;;;24.86;33.28;99141.28;5013974;28;20061;-49
2022/05/13 05:33:15;;;;;;;41.53;5.35;;;;;;;25.11;32.93;99140.22;5013745;28;20101;-49
2022/05/13 05:35:41;;;;;;;25.65;3.38;;;;;;;25.56;32.13;99147.28;4996091;28;20470;-49
2022/05/13 05:38:07;;;;;;;34.53;4.53;;;;;;;25.49;32.23;99148.44;5013627;28;20036;-50
2022/05/13 05:40:34;;;;;;;29.55;4.78;;;;;;;25.75;31.53;99142.72;5013603;28;20029;-50
2022/05/13 05:43:05;;;;;;;18.98;4.32;;;;;;;26.40;30.98;99147.47;5013594;28;20076;-50
2022/05/13 05:45:32;;;;;;;27.75;4.60;;;;;;;27.11;30.32;99147.34;5013413;28;20022;-49
2022/05/13 05:47:58;;;;;;;21.65;4.28;;;;;;;27.92;29.10;99152.22;5013546;28;20499;-50
2022/05/13 05:50:24;;;;;;;16.80;3.30;;;;;;;28.72;27.78;99141.69;5013998;28;20025;-50
2022/05/13 05:52:50;;;;;;;23.30;4.30;;;;;;;29.32;26.79;99151.22;5013346;28;20396;-49
2022/05/13 05:58:07;;;;;;;25.37;3.37;;;;;;;30.34;25.29;99147.38;5013651;28;20537;-49
2022/05/13 06:00:36;;;;;;;23.25;3.45;;;;;;;30.31;24.85;99149.94;5013311;28;20164;-50
2022/05/13 06:03:02;;;;;;;20.85;3.67;;;;;;;30.24;24.92;99140.38;5013242;28;20026;-50
2022/05/13 06:05:28;;;;;;;21.80;4.28;;;;;;;30.31;24.92;99148.03;4995406;28;20029;-50
2022/05/13 06:07:56;;;;;;;9.50;3.08;;;;;;;30.53;24.53;99147.03;5013153;28;20080;-49
2022/05/13 06:10:22;;;;;;;15.90;4.18;;;;;;;30.82;24.77;99150.94;5013258;28;20026;-50
2022/05/13 06:12:48;;;;;;;17.30;3.25;;;;;;;31.34;23.80;99160.81;5013052;28;20518;-49
2022/05/13 06:15:14;;;;;;;16.02;2.83;;;;;;;31.62;23.40;99163.88;5012805;28;20033;-50
2022/05/13 06:17:49;;;;;;;10.02;2.65;;;;;;;31.65;23.61;99160.50;5012616;28;20487;-50
2022/05/13 06:20:18;;;;;;;12.13;3.53;;;;;;;32.15;22.86;99156.16;5011566;28;20116;-50
2022/05/13 06:22:43;;;;;;;14.43;3.70;;;;;;;32.33;22.85;99149.44;5013071;28;20057;-50
2022/05/13 06:25:12;;;;;;;12.55;3.88;;;;;;;32.73;22.14;99154.34;5012724;28;20590;-49
2022/05/13 06:27:39;;;;;;;12.27;2.83;;;;;;;32.56;21.77;99151.81;5012789;28;20020;-50
2022/05/13 06:30:10;;;;;;;12.68;2.78;;;;;;;32.03;22.47;99156.91;5012682;28;20026;-50
2022/05/13 06:32:36;;;;;;;17.85;4.07;;;;;;;31.67;22.96;99160.16;5012791;28;20018;-50
2022/05/13 06:35:03;;;;;;;12.52;2.63;;;;;;;30.59;24.09;99144.97;5012625;28;20057;-49
2022/05/13 06:37:28;;;;;;;14.63;3.72;;;;;;;30.20;25.10;99152.97;5012626;28;20398;-49
2022/05/13 06:39:54;;;;;;;13.88;2.90;;;;;;;30.69;24.28;99146.50;5012542;28;20116;-49
2022/05/13 06:42:19;;;;;;;9.75;2.67;;;;;;;31.38;22.97;99153.63;5012515;28;20026;-50
2022/05/13 06:44:45;;;;;;;9.15;2.85;;;;;;;32.12;22.49;99151.41;5012352;28;20038;-50
2022/05/13 06:47:11;;;;;;;7.35;2.30;;;;;;;31.97;22.46;99141.91;5012419;28;20044;-49
2022/05/13 06:49:37;;;;;;;8.98;2.53;;;;;;;32.25;22.40;99148.38;5012419;28;20506;-49
2022/05/13 06:52:03;;;;;;;10.52;2.92;;;;;;;32.51;22.28;99149.28;4994704;28;20022;-50
2022/05/13 06:54:29;;;;;;;13.30;3.15;;;;;;;33.08;21.88;99142.25;4994371;28;20419;-51
2022/05/13 06:56:55;;;;;;;10.40;2.72;;;;;;;32.78;22.00;99151.41;5012319;28;20057;-50
2022/05/13 06:59:22;;;;;;;9.43;3.45;;;;;;;32.74;22.19;99152.41;5012233;28;20068;-50
2022/05/13 07:01:48;;;;;;;9.50;2.72;;;;;;;33.03;21.88;99154.16;5012191;28;20406;-50
2022/05/13 07:04:14;;;;;;;10.95;2.80;;;;;;;33.49;21.50;99149.44;5012113;28;20022;-49
2022/05/13 07:06:40;;;;;;;30.92;19.30;;;;;;;33.57;21.08;99150.44;4994543;28;20029;-49
2022/05/13 07:09:07;;;;;;;13.38;7.30;;;;;;;33.69;20.72;99136.84;5012068;28;20575;-50
2022/05/13 07:11:34;;;;;;;26.02;10.43;;;;;;;33.27;20.99;99142.53;5012089;28;20491;-50
2022/05/13 07:14:00;;;;;;;25.63;8.80;;;;;;;33.81;21.17;99150.41;4994478;28;20028;-50
2022/05/13 07:16:26;;;;;;;12.68;2.63;;;;;;;34.74;20.75;99146.75;5012062;28;20088;-50
2022/05/13 07:18:52;;;;;;;10.75;2.53;;;;;;;35.09;20.15;99151.50;5011981;28;20049;-50
2022/05/13 07:21:18;;;;;;;12.60;2.70;;;;;;;35.66;19.56;99154.00;5012035;28;20061;-49
2022/05/13 07:23:44;;;;;;;22.80;3.05;;;;;;;36.18;19.15;99156.31;5011919;28;20503;-50
2022/05/13 07:26:11;;;;;;;10.45;2.33;;;;;;;36.31;18.81;99161.59;5011902;28;20025;-51
2022/05/13 07:28:38;;;;;;;11.75;3.35;;;;;;;36.21;19.09;99165.72;5013716;28;20025;-50
2022/05/13 07:31:05;;;;;;;18.27;3.20;;;;;;;36.47;18.60;99158.78;5016070;28;20101;-51
2022/05/13 07:33:31;;;;;;;11.85;2.47;;;;;;;36.90;17.91;99162.28;4998566;28;20052;-50
2022/05/13 07:35:57;;;;;;;12.85;2.33;;;;;;;37.11;17.87;99162.66;5015967;28;20034;-50
2022/05/13 07:38:24;;;;;;;23.90;3.25;;;;;;;37.52;17.51;99160.13;5016003;28;20046;-51
2022/05/13 07:43:34;;;;;;;10.10;2.50;;;;;;;38.24;16.84;99163.03;5016175;28;20036;-50
2022/05/13 07:46:02;;;;;;;12.55;2.40;;;;;;;37.89;17.01;99159.50;5015671;28;20022;-50
2022/05/13 07:48:27;;;;;;;44.50;4.28;;;;;;;37.89;17.04;99164.16;5015694;28;20133;-50
2022/05/13 07:50:53;;;;;;;14.50;3.10;;;;;;;37.95;16.83;99163.47;5015653;28;20561;-51
2022/05/13 07:53:19;;;;;;;12.10;2.95;;;;;;;38.13;17.25;99154.69;5015318;28;20029;-51
2022/05/13 07:55:45;;;;;;;15.48;3.25;;;;;;;38.51;16.24;99159.03;5015650;28;20026;-51
2022/05/13 07:58:11;;;;;;;14.63;2.72;;;;;;;38.71;15.96;99162.34;5015548;28;20113;-51
2022/05/13 08:00:38;;;;;;;14.13;3.00;;;;;;;38.78;16.13;99158.09;5015523;28;20618;-51
2022/05/13 08:03:13;;;;;;;12.73;2.47;;;;;;;38.78;16.08;99160.84;5015493;28;20022;-51
2022/05/13 08:05:43;;;;;;;13.55;2.85;;;;;;;38.67;15.97;99164.28;5015407;28;20026;-51
2022/05/13 08:08:13;;;;;;;15.02;2.20;;;;;;;38.73;15.88;99157.28;5015402;28;20480;-51
2022/05/13 08:10:45;;;;;;;14.68;2.97;;;;;;;39.09;16.09;99162.31;5015309;28;20032;-51
2022/05/13 08:13:11;;;;;;;12.60;3.53;;;;;;;39.24;15.83;99161.25;5015326;28;20033;-51
2022/05/13 08:15:38;;;;;;;19.15;3.92;;;;;;;39.39;15.76;99162.13;5015182;28;20026;-50
2022/05/13 08:18:04;;;;;;;18.45;3.30;;;;;;;39.51;15.49;99155.53;5015158;28;20403;-50
2022/05/13 08:20:31;;;;;;;11.75;2.60;;;;;;;39.48;15.34;99154.38;5015130;28;20018;-50
2022/05/13 08:22:57;;;;;;;15.38;3.10;;;;;;;39.66;15.17;99154.47;5015064;28;20092;-51
2022/05/13 08:25:23;;;;;;;17.52;3.13;;;;;;;40.11;14.84;99151.50;4997381;28;20022;-50
2022/05/13 08:27:49;;;;;;;13.88;2.92;;;;;;;40.69;14.54;99153.22;5014989;28;20017;-50
2022/05/13 08:30:16;;;;;;;14.70;2.92;;;;;;;40.92;14.14;99152.06;5014965;28;20018;-51
2022/05/13 08:32:43;;;;;;;15.05;2.92;;;;;;;40.67;14.71;99152.00;5014926;28;20033;-51
2022/05/13 08:35:09;;;;;;;9.43;2.70;;;;;;;41.26;14.09;99144.16;4997230;28;20026;-51
2022/05/13 08:37:47;;;;;;;12.07;2.95;;;;;;;41.70;13.84;99142.88;4997214;28;20385;-52
2022/05/13 08:40:25;;;;;;;10.55;2.65;;;;;;;42.11;13.34;99141.53;5014335;28;20054;-49
2022/05/13 08:42:50;;;;;;;11.45;2.20;;;;;;;42.05;13.13;99140.41;5014727;28;20036;-51
2022/05/13 08:45:19;;;;;;;6.85;2.35;;;;;;;41.13;13.97;99143.78;5014613;28;20105;-51
2022/05/13 08:47:50;;;;;;;26.00;3.22;;;;;;;40.27;14.50;99148.41;5014668;28;20096;-50
2022/05/13 08:50:56;;;;;;;13.90;2.38;;;;;;;40.23;14.68;99142.91;5014557;28;20526;-51
2022/05/13 08:53:36;;;;;;;7.85;2.35;;;;;;;40.61;14.64;99148.06;5014049;28;20050;-51
2022/05/13 08:56:11;;;;;;;7.18;2.03;;;;;;;40.54;14.58;99148.88;5014519;28;20096;-50
2022/05/13 08:58:58;;;;;;;17.65;3.50;;;;;;;40.30;14.83;99148.44;5014469;28;20518;-51
2022/05/13 09:01:30;;;;;;;4.50;1.95;;;;;;;40.21;14.83;99148.00;5014439;28;20542;-51
2022/05/13 09:04:07;;;;;;;18.65;3.25;;;;;;;39.59;15.62;99146.16;5014407;28;20034;-51
2022/05/13 09:06:39;;;;;;;11.25;3.28;;;;;;;39.02;15.79;99148.50;5014314;28;20030;-51
2022/05/13 09:09:08;;;;;;;17.90;3.63;;;;;;;38.72;16.33;99147.47;5014303;28;20022;-51
2022/05/13 09:11:40;;;;;;;8.48;2.60;;;;;;;38.84;16.44;99143.66;5014226;28;20030;-51
2022/05/13 09:14:12;;;;;;;20.90;2.67;;;;;;;38.03;17.06;99149.84;5014157;28;20038;-51
2022/05/13 09:16:46;;;;;;;12.98;2.97;;;;;;;37.99;16.88;99138.84;5014013;28;20030;-51
2022/05/13 09:19:18;;;;;;;7.28;3.03;;;;;;;38.00;17.00;99136.91;5014155;28;20029;-50
2022/05/13 09:21:44;;;;;;;9.45;3.30;;;;;;;37.60;17.70;99141.88;5013994;28;20030;-50
2022/05/13 09:24:11;;;;;;;9.43;2.40;;;;;;;37.65;17.49;99146.25;5013936;28;20054;-51
2022/05/13 09:26:41;;;;;;;11.57;2.80;;;;;;;37.85;17.63;99134.00;4996238;28;20200;-51
2022/05/13 09:29:17;;;;;;;13.68;3.30;;;;;;;37.48;17.53;99136.59;5013918;28;20026;-51
2022/05/13 09:31:55;;;;;;;13.27;4.03;;;;;;;37.35;18.00;99145.03;4996092;28;20077;-50
2022/05/13 09:34:36;;;;;;;24.10;4.07;;;;;;;37.49;18.01;99138.97;4996136;28;20036;-51
2022/05/13 09:37:06;;;;;;;9.60;2.78;;;;;;;37.32;18.54;99144.97;5013699;28;20029;-51
2022/05/13 09:39:43;;;;;;;7.07;2.92;;;;;;;37.34;18.58;99145.41;5014017;28;20054;-50
2022/05/13 09:42:36;;;;;;;11.75;3.20;;;;;;;37.37;18.48;99144.69;5013637;28;20025;-50
2022/05/13 09:45:17;;;;;;;10.20;3.17;;;;;;;37.62;18.20;99144.25;5008104;28;20048;-50
2022/05/13 09:47:46;;;;;;;47.50;5.78;;;;;;;37.70;18.72;99151.41;5013580;28;20026;-51
2022/05/13 09:50:26;;;;;;;72.53;5.68;;;;;;;37.40;18.97;99143.94;5013057;28;20515;-51
2022/05/13 09:52:52;;;;;;;20.67;3.60;;;;;;;37.09;19.50;99142.28;5013325;28;20029;-50
2022/05/13 09:55:26;;;;;;;11.38;3.47;;;;;;;36.88;20.15;99142.72;4995500;28;20045;-51
2022/05/13 09:57:53;;;;;;;25.00;3.92;;;;;;;36.74;20.30;99137.78;5013375;28;20535;-50
2022/05/13 10:00:27;;;;;;;7.25;3.38;;;;;;;36.36;20.71;99140.25;5013279;28;20029;-51
2022/05/13 10:03:16;;;;;;;10.82;3.38;;;;;;;35.82;21.02;99141.09;5013292;28;20499;-51
2022/05/13 10:05:42;;;;;;;11.63;3.03;;;;;;;35.35;21.66;99136.53;5013113;28;20030;-50
2022/05/13 10:08:13;;;;;;;10.55;3.78;;;;;;;34.80;21.95;99134.44;5013150;28;20081;-50
2022/05/13 10:13:59;;;;;;;8.57;3.10;;;;;;;35.68;21.85;99136.13;5013327;28;20041;-51
2022/05/13 10:16:44;;;;;;;12.38;4.18;;;;;;;36.41;20.84;99141.88;5013038;28;20411;-50
2022/05/13 10:19:52;;;;;;;11.52;3.75;;;;;;;36.71;20.75;99133.84;4995348;28;20380;-51
2022/05/13 10:22:38;;;;;;;18.27;4.32;;;;;;;36.95;20.50;99124.47;5007468;28;20046;-51
2022/05/13 10:25:17;;;;;;;12.27;3.35;;;;;;;37.12;20.18;99133.34;4995166;28;20488;-51
2022/05/13 10:28:07;;;;;;;11.60;3.50;;;;;;;37.14;20.21;99126.34;5012834;28;20033;-50
2022/05/13 10:30:49;;;;;;;9.27;3.65;;;;;;;37.11;20.29;99126.28;5012791;28;20497;-50
2022/05/13 10:33:22;;;;;;;10.90;4.10;;;;;;;36.82;20.59;99125.81;5012664;28;20037;-50
2022/05/13 10:36:00;;;;;;;11.35;3.65;;;;;;;37.05;20.74;99125.00;5012755;28;20037;-50
2022/05/13 10:38:54;;;;;;;10.73;3.17;;;;;;;37.33;20.13;99122.72;5012698;28;20025;-50
2022/05/13 10:41:34;;;;;;;10.50;3.65;;;;;;;38.04;19.17;99113.84;5012625;28;20030;-51
2022/05/13 10:44:07;;;;;;;9.25;3.55;;;;;;;38.11;19.20;99113.97;5012546;28;20026;-50
2022/05/13 10:46:48;;;;;;;18.92;9.40;;;;;;;37.89;18.92;99110.16;4994818;28;20026;-51
2022/05/13 10:49:14;;;;;;;17.75;4.90;;;;;;;37.07;20.14;99120.75;5012496;28;20030;-50
2022/05/13 10:52:23;;;;;;;14.45;4.38;;;;;;;36.82;20.43;99122.28;5012607;28;20083;-51
2022/05/13 10:55:18;;;;;;;8.63;3.40;;;;;;;36.44;20.94;99113.03;4970847;28;20061;-50
2022/05/13 10:57:50;;;;;;;16.15;3.70;;;;;;;36.28;20.80;99113.94;4971115;28;20447;-51
2022/05/13 11:00:27;;;;;;;9.90;4.05;;;;;;;36.41;20.72;99116.50;4971150;28;20039;-50
2022/05/13 11:03:14;;;;;;;9.77;3.03;;;;;;;36.65;20.87;99107.97;4970910;28;20039;-50
2022/05/13 11:06:00;;;;;;;15.27;3.67;;;;;;;36.65;20.57;99118.91;4970932;28;20109;-50
2022/05/13 11:08:46;;;;;;;9.80;2.90;;;;;;;37.12;20.16;99105.97;4954831;28;20125;-50
2022/05/13 11:11:31;;;;;;;12.00;3.40;;;;;;;37.47;20.27;99102.16;4970901;28;20048;-51
2022/05/13 11:14:04;;;;;;;14.68;3.78;;;;;;;37.06;20.51;99105.47;4971023;28;20501;-49
2022/05/13 11:16:53;;;;;;;17.30;3.67;;;;;;;36.56;20.86;99107.38;4970835;28;20069;-50
2022/05/13 11:19:31;;;;;;;13.82;3.80;;;;;;;36.95;20.74;99104.53;4970891;28;20110;-50
2022/05/13 11:22:15;;;;;;;8.50;3.60;;;;;;;37.23;20.01;99104.19;4970816;28;20046;-50
2022/05/13 11:28:01;;;;;;;12.70;3.15;;;;;;;36.88;19.97;99098.94;4975600;28;20559;-49
2022/05/13 11:31:06;;;;;;;19.83;5.10;;;;;;;36.67;20.59;99105.66;5012017;28;20018;-49
2022/05/13 11:33:42;;;;;;;15.23;3.40;;;;;;;36.42;20.51;99115.31;5004639;28;20124;-50
2022/05/13 11:36:32;;;;;;;14.23;3.72;;;;;;;36.59;20.35;99109.38;5011973;28;20165;-50
2022/05/13 11:39:10;;;;;;;16.27;3.95;;;;;;;36.59;20.38;99115.63;5011916;28;20411;-49
2022/05/13 11:41:50;;;;;;;11.57;2.95;;;;;;;37.01;19.76;99103.06;5011895;28;20030;-50
2022/05/13 11:44:20;;;;;;;11.98;3.20;;;;;;;37.72;19.61;99099.78;5011876;28;20030;-51
2022/05/13 11:47:01;;;;;;;13.07;3.17;;;;;;;38.20;19.44;99099.16;5011904;28;20033;-50
2022/05/13 11:49:32;;;;;;;7.85;3.03;;;;;;;38.45;18.32;99100.16;5011786;28;20108;-51
2022/05/13 11:52:12;;;;;;;17.00;3.92;;;;;;;38.03;19.20;99104.03;5011799;28;20129;-51
2022/05/13 11:54:42;;;;;;;10.45;2.97;;;;;;;37.97;19.44;99087.16;5011420;28;20081;-50
2022/05/13 11:57:18;;;;;;;17.27;3.40;;;;;;;37.53;19.84;99100.66;4994367;28;20427;-50
2022/05/13 11:59:48;;;;;;;9.52;3.10;;;;;;;37.24;20.24;99091.28;5011677;28;20025;-51
2022/05/13 12:02:35;;;;;;;13.75;3.55;;;;;;;37.42;20.47;99092.31;5011731;28;20025;-50
2022/05/13 12:05:06;;;;;;;10.88;2.88;;;;;;;37.26;20.51;99097.19;5011566;28;20018;-50